Time;durP1;ratioP1;P1;durP2;ratioP2;P2;SDS_P1;SDS_P2;PMS_P1;PMS_P2;Temp;Humidity;BMP_temperature;BMP_pressure;BME280_temperature;BME280_humidity;BME280_pressure;Samples;Min_cycle;Max_cycle;Signal;HPM_P1;HPM_P2
2022/08/17 00:00:41;;;;;;;38.63;25.02;;;;;;;19.06;88.77;100959.88;10331683;28;20049;-89
2022/08/17 00:06:09;;;;;;;35.80;24.90;;;;;;;18.96;88.98;100952.94;10341962;28;20227;-89
2022/08/17 00:11:29;;;;;;;43.10;27.05;;;;;;;18.94;89.52;100954.75;10310732;28;20048;-88
2022/08/17 00:16:41;;;;;;;42.70;28.80;;;;;;;18.90;89.36;100952.16;10337046;28;20503;-89
2022/08/17 00:22:05;;;;;;;37.80;27.13;;;;;;;18.83;89.17;100949.56;10318798;28;20054;-90
2022/08/17 00:27:32;;;;;;;34.72;24.35;;;;;;;18.70;89.61;100943.56;10331143;28;20054;-89
2022/08/17 00:32:45;;;;;;;33.22;23.10;;;;;;;18.66;89.39;100944.50;10338764;28;20049;-89
2022/08/17 00:38:22;;;;;;;36.92;23.65;;;;;;;18.65;89.51;100951.56;10329392;28;20120;-89
2022/08/17 00:44:00;;;;;;;40.58;24.42;;;;;;;18.55;89.45;100964.09;10333032;28;20104;-90
2022/08/17 00:49:18;;;;;;;39.72;23.95;;;;;;;18.46;89.61;100956.25;10352551;28;20046;-88
2022/08/17 00:54:40;;;;;;;31.15;21.73;;;;;;;18.43;89.50;100931.56;10328129;28;20046;-88
2022/08/17 00:59:51;;;;;;;40.70;23.15;;;;;;;18.35;89.64;100942.25;10321035;28;20054;-90
2022/08/17 01:05:06;;;;;;;33.70;22.02;;;;;;;18.30;89.88;100931.72;10316307;28;20050;-90
2022/08/17 01:10:43;;;;;;;35.45;23.75;;;;;;;18.30;89.88;100942.31;10309201;28;20058;-89
2022/08/17 01:16:23;;;;;;;36.85;24.77;;;;;;;18.26;90.31;100942.38;10329992;28;20046;-89
2022/08/17 01:21:41;;;;;;;36.55;23.98;;;;;;;18.20;90.60;100944.19;10330047;28;20064;-89
2022/08/17 01:26:51;;;;;;;;;;;;;;;18.16;90.67;100934.50;10325078;28;20054;-89
2022/08/17 01:32:10;;;;;;;33.70;23.67;;;;;;;18.17;90.81;100935.41;10308249;28;19969;-89
2022/08/17 01:37:31;;;;;;;33.15;21.90;;;;;;;18.07;90.66;100934.63;10322699;28;20049;-90
2022/08/17 01:42:48;;;;;;;33.38;21.52;;;;;;;17.96;90.29;100925.94;10332825;28;20056;-89
2022/08/17 01:47:57;;;;;;;32.92;22.05;;;;;;;17.91;90.35;100922.44;10328789;28;20429;-89
2022/08/17 01:53:14;;;;;;;36.55;24.73;;;;;;;17.88;90.43;100919.81;10330031;28;20042;-90
2022/08/17 01:58:32;;;;;;;38.88;24.63;;;;;;;17.86;90.65;100922.47;10314491;28;20049;-90
2022/08/17 02:03:43;;;;;;;35.22;24.05;;;;;;;17.82;91.06;100918.13;10331943;28;20054;-89
2022/08/17 02:09:02;;;;;;;;;;;;;;;17.79;91.03;100912.81;10328714;28;20652;-88
2022/08/17 02:14:24;;;;;;;35.00;23.35;;;;;;;17.72;91.31;100912.03;10327204;28;20452;-90
2022/08/17 02:19:46;;;;;;;37.40;24.75;;;;;;;17.72;91.57;100912.03;10326589;28;20402;-90
2022/08/17 02:24:57;;;;;;;40.88;27.50;;;;;;;17.71;91.41;100904.97;10313783;28;20089;-89
2022/08/17 02:30:09;;;;;;;39.40;26.45;;;;;;;17.65;91.45;100905.94;10329807;28;20062;-89
2022/08/17 02:35:35;;;;;;;40.35;28.48;;;;;;;17.62;91.69;100907.72;10328432;28;20706;-89
2022/08/17 02:40:47;;;;;;;35.50;25.27;;;;;;;17.58;91.41;100911.28;10335104;28;20046;-90
2022/08/17 02:45:57;;;;;;;35.53;24.23;;;;;;;17.51;91.68;100913.13;10333372;28;20061;-89
2022/08/17 02:51:19;;;;;;;34.63;24.77;;;;;;;17.39;91.83;100906.16;10330879;28;20062;-89
2022/08/17 02:56:32;;;;;;;35.95;23.73;;;;;;;-147.53;100.00;57128.34;10331600;28;20460;-90
2022/08/17 03:01:55;;;;;;;34.35;21.52;;;;;;;-147.53;100.00;57128.34;10319231;28;20050;-89
2022/08/17 03:07:03;;;;;;;36.38;21.77;;;;;;;-147.53;100.00;57128.34;10316289;28;20050;-88
2022/08/17 03:12:21;;;;;;;32.60;23.23;;;;;;;-147.53;100.00;57128.34;10328355;28;20052;-89
2022/08/17 03:17:27;;;;;;;33.90;22.85;;;;;;;-147.53;100.00;57128.34;10328066;28;20046;-89
2022/08/17 03:22:41;;;;;;;36.63;24.80;;;;;;;-147.53;100.00;57128.34;10324731;28;20778;-90
2022/08/17 03:27:59;;;;;;;34.25;24.50;;;;;;;-147.53;100.00;57128.34;10318226;28;20656;-89
2022/08/17 03:33:11;;;;;;;33.95;22.67;;;;;;;-147.53;100.00;57128.34;10324349;28;20054;-90
2022/08/17 03:38:17;;;;;;;34.15;23.20;;;;;;;-147.53;100.00;57128.34;10343173;28;20684;-90
2022/08/17 03:43:28;;;;;;;36.58;24.23;;;;;;;-147.53;100.00;57128.34;10323432;28;20046;-88
2022/08/17 03:59:34;;;;;;;34.20;24.42;;;;;;;-147.53;100.00;57128.34;10324845;28;20041;-87
2022/08/17 04:04:37;;;;;;;34.22;24.65;;;;;;;-147.53;100.00;57128.34;10321145;28;20109;-87
2022/08/17 04:09:38;;;;;;;43.90;25.92;;;;;;;-147.53;100.00;57128.34;10328061;28;20145;-86
2022/08/17 04:14:40;;;;;;;43.33;27.55;;;;;;;-147.53;100.00;57128.34;10329874;28;20097;-87
2022/08/17 04:19:56;;;;;;;44.15;28.38;;;;;;;-147.53;100.00;57128.34;10327213;28;20132;-87
2022/08/17 04:24:58;;;;;;;47.05;30.58;;;;;;;-147.53;100.00;57128.34;10327699;28;20093;-88
2022/08/17 04:30:00;;;;;;;47.00;30.73;;;;;;;-147.53;100.00;57128.34;10326416;28;20077;-87
2022/08/17 04:35:01;;;;;;;42.83;30.27;;;;;;;-147.53;100.00;57128.34;10328840;28;20068;-87
2022/08/17 04:45:28;;;;;;;49.55;30.17;;;;;;;-147.53;100.00;57128.34;10331278;28;20050;-86
2022/08/17 04:50:35;;;;;;;49.95;29.08;;;;;;;-147.53;100.00;57128.34;10332032;28;20061;-87
2022/08/17 04:55:41;;;;;;;47.28;27.70;;;;;;;-147.53;100.00;57128.34;10335933;28;20136;-86
2022/08/17 05:00:42;;;;;;;42.22;28.08;;;;;;;-147.53;100.00;57128.34;10334932;28;20042;-86
2022/08/17 05:05:48;;;;;;;41.58;27.38;;;;;;;-147.53;100.00;57128.34;10337723;28;20165;-86
2022/08/17 05:10:53;;;;;;;38.83;27.15;;;;;;;-147.53;100.00;57128.34;10336130;28;20269;-92
2022/08/17 05:15:58;;;;;;;35.75;24.88;;;;;;;-147.53;100.00;57128.34;10341047;28;20955;-90
2022/08/17 05:21:01;;;;;;;36.60;26.25;;;;;;;-147.53;100.00;57128.34;10343959;28;20054;-90
2022/08/17 05:26:07;;;;;;;38.95;25.33;;;;;;;-147.53;100.00;57128.34;10334888;28;20707;-90
2022/08/17 05:31:12;;;;;;;36.97;26.30;;;;;;;-147.53;100.00;57128.34;10335814;28;20050;-89
2022/08/17 05:36:14;;;;;;;42.13;26.48;;;;;;;-147.53;100.00;57128.34;10342310;28;20046;-87
2022/08/17 05:41:36;;;;;;;35.10;24.45;;;;;;;-147.53;100.00;57128.34;10334465;28;20126;-87
2022/08/17 05:46:42;;;;;;;35.08;24.05;;;;;;;-147.53;100.00;57128.34;10334988;28;20104;-88
2022/08/17 05:51:50;;;;;;;38.75;23.58;;;;;;;17.83;93.73;100949.88;10327710;28;20043;-87
2022/08/17 05:57:11;;;;;;;35.43;25.07;;;;;;;17.85;93.51;100942.78;10328541;28;20049;-87
2022/08/17 06:02:54;;;;;;;36.25;24.80;;;;;;;17.91;93.18;100941.88;10325479;28;20096;-88
2022/08/17 06:08:19;;;;;;;37.13;26.25;;;;;;;18.03;92.95;100946.19;10331103;28;20153;-88
2022/08/17 06:13:39;;;;;;;35.45;23.55;;;;;;;17.97;92.53;100955.06;10333730;28;20050;-88
2022/08/17 06:18:45;;;;;;;;;;;;;;;18.00;92.25;100959.47;10331274;28;20070;-88
2022/08/17 06:23:58;;;;;;;34.35;24.17;;;;;;;18.02;91.81;100957.66;10344463;28;19932;-88
2022/08/17 06:29:14;;;;;;;36.55;25.20;;;;;;;18.09;92.07;100955.81;10327667;28;20097;-88
2022/08/17 06:34:22;;;;;;;38.03;26.88;;;;;;;18.34;91.96;100951.09;10315998;28;20469;-88
2022/08/17 06:39:51;;;;;;;38.92;28.10;;;;;;;18.50;92.08;100959.75;10321301;28;20046;-88
2022/08/17 06:45:16;;;;;;;43.20;28.50;;;;;;;18.57;91.50;100955.22;10327459;28;20050;-87
2022/08/17 06:50:36;;;;;;;43.03;29.58;;;;;;;18.67;91.76;100957.72;10324921;28;20092;-88
2022/08/17 06:55:55;;;;;;;45.00;29.88;;;;;;;19.85;91.37;100963.91;10323978;28;20042;-88
2022/08/17 07:01:16;;;;;;;45.13;30.75;;;;;;;20.87;89.43;100954.72;10345476;28;20058;-88
2022/08/17 07:06:26;;;;;;;42.00;29.90;;;;;;;21.25;86.42;100952.06;10323867;28;20045;-88
2022/08/17 07:12:08;;;;;;;40.47;29.20;;;;;;;22.05;84.22;100942.88;10330527;28;20042;-88
2022/08/17 07:17:17;;;;;;;44.80;28.73;;;;;;;22.58;81.88;100952.03;10326485;28;20066;-87
2022/08/17 07:22:33;;;;;;;43.95;27.67;;;;;;;22.96;79.75;100955.31;10323210;28;20450;-88
2022/08/17 07:27:59;;;;;;;38.92;26.67;;;;;;;22.31;78.88;100954.59;10328671;28;20482;-87
2022/08/17 07:33:10;;;;;;;37.60;26.30;;;;;;;22.06;79.11;100954.41;10312828;28;20070;-88
2022/08/17 07:38:23;;;;;;;40.70;25.95;;;;;;;21.81;79.32;100948.84;10320544;28;20521;-88
2022/08/17 07:43:36;;;;;;;37.10;25.25;;;;;;;21.82;79.89;100967.47;10319624;28;20060;-87
2022/08/17 07:48:50;;;;;;;38.35;25.35;;;;;;;22.31;79.52;100973.28;10328587;28;20046;-88
2022/08/17 07:54:21;;;;;;;37.05;24.70;;;;;;;22.21;78.97;100982.41;10327597;28;20042;-90
2022/08/17 08:00:12;;;;;;;39.83;24.60;;;;;;;21.95;78.72;100993.78;10322943;28;20053;-89
2022/08/17 08:50:24;;;;;;;28.85;21.45;;;;;;;23.65;76.10;101000.28;10154026;29;20151;-91
2022/08/17 08:56:02;;;;;;;50.35;21.23;;;;;;;23.69;75.09;101015.28;10158498;29;20087;-91
2022/08/17 09:01:31;;;;;;;30.63;20.58;;;;;;;23.96;74.27;101015.28;10155395;29;20141;-91
2022/08/17 09:07:11;;;;;;;26.38;18.90;;;;;;;24.50;73.25;101003.50;10160529;29;20044;-90
2022/08/17 09:12:19;;;;;;;28.05;20.38;;;;;;;24.86;72.21;101013.78;10160862;29;20139;-89
2022/08/17 09:17:43;;;;;;;35.13;19.85;;;;;;;24.96;71.34;101011.59;10148402;29;20048;-91
2022/08/17 09:23:41;;;;;;;28.27;19.52;;;;;;;25.36;70.52;101006.47;10159661;29;20456;-91
2022/08/17 09:29:34;;;;;;;;;;;;;;;;;;;;;
2022/08/17 09:41:33;;;;;;;31.95;17.70;;;;;;;26.38;66.52;100996.75;10203218;29;20869;-94
2022/08/17 09:47:33;;;;;;;25.73;16.98;;;;;;;26.58;65.61;100995.81;10177464;29;20056;-91
2022/08/17 09:52:45;;;;;;;20.95;14.95;;;;;;;26.41;65.77;100993.91;10188863;29;20055;-91
2022/08/17 09:58:20;;;;;;;25.40;15.90;;;;;;;26.52;65.63;100994.28;10196595;29;20051;-94
2022/08/17 10:03:41;;;;;;;23.50;17.33;;;;;;;26.49;65.14;101005.16;10168485;29;20115;-86
2022/08/17 10:09:07;;;;;;;21.30;15.95;;;;;;;27.06;64.37;101005.19;10158420;29;20151;-86
2022/08/17 10:14:32;;;;;;;23.20;16.30;;;;;;;27.85;61.94;100995.91;10159204;29;20054;-90
2022/08/17 10:20:13;;;;;;;23.83;14.57;;;;;;;28.30;60.69;100997.13;10150959;29;20595;-89
2022/08/17 10:31:02;;;;;;;;;;;;;;;28.66;59.15;101001.50;10158478;29;20126;-91
2022/08/17 10:36:56;;;;;;;23.90;16.60;;;;;;;28.88;57.89;101000.28;10169349;29;20029;-89
2022/08/17 10:42:14;;;;;;;20.90;15.05;;;;;;;28.60;58.14;100995.56;10144858;29;20063;-90
2022/08/17 10:48:02;;;;;;;21.67;15.30;;;;;;;28.39;58.55;100995.78;10159884;29;20068;-89
2022/08/17 10:53:07;;;;;;;21.30;15.18;;;;;;;28.12;58.90;100996.31;10153387;29;20050;-89
2022/08/17 10:58:20;;;;;;;19.45;13.70;;;;;;;27.94;59.58;100987.34;10157154;29;20403;-89
2022/08/17 11:03:25;;;;;;;19.30;14.07;;;;;;;27.99;59.82;100990.69;10154789;29;20051;-89
2022/08/17 11:08:59;;;;;;;19.15;13.20;;;;;;;27.97;60.08;100998.00;10155254;29;20052;-90
2022/08/17 11:14:20;;;;;;;19.63;15.18;;;;;;;28.03;59.86;100976.13;10150946;29;20048;-89
2022/08/17 11:19:40;;;;;;;20.52;12.50;;;;;;;28.15;59.20;100968.34;10156661;29;20103;-90
2022/08/17 11:24:46;;;;;;;19.35;12.93;;;;;;;28.42;59.64;100973.16;10168976;29;20059;-89
2022/08/17 11:29:54;;;;;;;26.02;14.45;;;;;;;28.90;58.76;100963.34;10154994;29;20055;-91
2022/08/17 11:35:20;;;;;;;15.30;11.50;;;;;;;28.93;57.45;100965.88;10153928;29;20136;-89
2022/08/17 11:40:53;;;;;;;27.92;11.27;;;;;;;28.69;57.89;100958.22;10153936;29;20134;-89
2022/08/17 11:51:32;;;;;;;16.35;8.48;;;;;;;29.20;57.43;100955.31;10156333;29;20053;-90
2022/08/17 11:52:00;;;;;;;16.57;9.70;;;;;;;29.69;56.20;100956.91;10155335;29;20421;-89
2022/08/17 11:57:26;;;;;;;12.50;7.75;;;;;;;30.02;54.76;100945.03;10159792;29;20044;-90
2022/08/17 12:02:34;;;;;;;13.00;7.43;;;;;;;29.85;54.72;100937.16;10172923;29;20044;-90
2022/08/17 12:07:41;;;;;;;13.98;8.80;;;;;;;29.97;53.16;100933.69;10166033;29;20599;-89
2022/08/17 12:12:45;;;;;;;13.65;7.95;;;;;;;30.06;52.56;100934.94;10153581;29;20056;-89
2022/08/17 12:17:52;;;;;;;15.63;7.75;;;;;;;30.54;51.73;100934.66;10163462;29;20592;-91
2022/08/17 12:23:23;;;;;;;16.95;8.50;;;;;;;30.61;50.92;100939.56;10160400;29;20406;-92
2022/08/17 12:28:32;;;;;;;13.05;9.13;;;;;;;30.48;50.43;100938.59;10175933;29;20863;-90
2022/08/17 12:33:42;;;;;;;16.83;8.23;;;;;;;30.08;50.40;100928.47;10161140;29;20255;-91
2022/08/17 12:38:49;;;;;;;;;;;;;;;29.97;51.35;100923.75;10160752;29;20595;-91
2022/08/17 12:43:57;;;;;;;15.55;7.78;;;;;;;29.76;52.66;100927.75;10162103;29;19927;-90
2022/08/17 12:49:12;;;;;;;;;;;;;;;29.55;53.11;100916.44;10179598;29;20052;-90
2022/08/17 12:54:30;;;;;;;12.55;7.05;;;;;;;29.37;53.67;100915.72;10154809;29;20355;-89
2022/08/17 12:59:32;;;;;;;12.27;6.57;;;;;;;29.26;53.98;100913.69;10159893;29;20051;-90
2022/08/17 13:04:38;;;;;;;14.82;7.50;;;;;;;29.10;54.48;100906.44;10157626;29;20040;-90
2022/08/17 13:09:50;;;;;;;16.13;7.03;;;;;;;28.91;55.43;100900.38;10160065;29;20082;-89
2022/08/17 13:14:51;;;;;;;10.25;7.05;;;;;;;28.89;56.15;100896.94;10163521;29;20052;-89
2022/08/17 13:19:53;;;;;;;12.63;7.03;;;;;;;28.94;56.80;100891.28;10161313;29;20667;-88
2022/08/17 13:25:02;;;;;;;10.85;7.22;;;;;;;28.82;57.04;100882.94;10159671;29;20050;-88
2022/08/17 13:30:10;;;;;;;11.23;6.93;;;;;;;28.84;56.76;100881.03;10159713;29;20091;-89
2022/08/17 13:35:28;;;;;;;9.55;6.07;;;;;;;28.72;56.52;100876.38;10157477;29;20055;-89
2022/08/17 13:40:48;;;;;;;12.17;7.87;;;;;;;29.02;56.37;100873.69;10181788;29;20059;-91
2022/08/17 13:45:54;;;;;;;9.75;5.80;;;;;;;29.26;56.12;100884.00;10144401;29;20567;-89
2022/08/17 13:50:56;;;;;;;17.10;6.90;;;;;;;29.37;54.69;100877.97;10161552;29;20096;-92
2022/08/17 13:56:22;;;;;;;12.10;5.35;;;;;;;29.38;54.70;100872.47;10160498;29;20052;-96
2022/08/17 14:01:46;;;;;;;11.32;5.68;;;;;;;29.49;54.04;100862.88;10158121;29;20504;-91
2022/08/17 14:07:00;;;;;;;;;;;;;;;29.46;52.99;100871.16;10156717;29;20068;-90
2022/08/17 14:12:04;;;;;;;11.02;3.80;;;;;;;29.43;51.90;100866.81;10166726;29;20014;-89
2022/08/17 14:17:06;;;;;;;11.88;5.95;;;;;;;29.49;52.43;100869.13;10159573;29;21150;-87
2022/08/17 14:22:17;;;;;;;12.77;7.13;;;;;;;29.28;55.95;100863.22;10161406;29;20126;-89
2022/08/17 14:27:19;;;;;;;12.73;7.72;;;;;;;29.14;57.89;100853.22;10155414;29;20056;-87
2022/08/17 14:32:28;;;;;;;12.40;6.43;;;;;;;28.97;58.47;100842.56;10153795;28;20131;-89
2022/08/17 14:37:30;;;;;;;12.85;6.88;;;;;;;28.63;59.26;100807.72;10138004;29;20072;-86
2022/08/17 14:42:57;;;;;;;14.45;6.68;;;;;;;28.12;60.31;100799.81;10155613;29;20044;-89
2022/08/17 14:48:42;;;;;;;9.70;6.25;;;;;;;27.64;60.82;100856.22;10132820;29;20044;-89
2022/08/17 14:53:49;;;;;;;6.70;2.85;;;;;;;26.46;58.21;100855.81;10153180;29;20147;-89
2022/08/17 14:58:50;;;;;;;14.00;2.92;;;;;;;24.28;60.57;100884.84;10154963;29;20040;-90
2022/08/17 15:03:52;;;;;;;10.55;3.20;;;;;;;22.92;64.97;100921.59;10156315;29;20052;-85
2022/08/17 15:09:15;;;;;;;9.73;3.75;;;;;;;22.17;68.49;100933.66;10155860;29;20139;-87
2022/08/17 15:14:19;;;;;;;7.80;3.38;;;;;;;21.53;71.11;100929.16;10098681;28;20052;-88
2022/08/17 15:19:20;;;;;;;9.88;4.00;;;;;;;21.21;74.51;100868.69;10135499;29;20642;-86
2022/08/17 15:24:22;;;;;;;10.07;4.53;;;;;;;20.93;76.99;100871.19;10168314;29;20063;-87
2022/08/17 15:29:24;;;;;;;8.65;4.40;;;;;;;20.86;78.33;100859.81;10152750;29;20575;-87
2022/08/17 15:34:26;;;;;;;8.15;4.63;;;;;;;20.97;79.74;100870.19;10150126;29;20074;-87
2022/08/17 15:39:27;;;;;;;8.40;4.57;;;;;;;20.97;80.38;100887.06;10159237;29;20135;-89
2022/08/17 15:44:29;;;;;;;9.18;4.63;;;;;;;20.99;81.24;100890.53;10155626;29;20150;-89
2022/08/17 15:49:39;;;;;;;8.52;4.65;;;;;;;20.92;82.21;100872.97;10154299;29;20131;-88
2022/08/17 15:54:41;;;;;;;9.90;4.75;;;;;;;20.83;82.57;100866.06;10150441;29;20465;-88
2022/08/17 15:59:46;;;;;;;9.75;5.10;;;;;;;20.82;83.10;100853.72;10166270;29;20084;-89
2022/08/17 16:05:06;;;;;;;10.68;6.05;;;;;;;20.86;83.60;100843.84;10146087;29;20048;-87
2022/08/17 16:10:16;;;;;;;12.38;6.10;;;;;;;20.89;84.05;100835.78;10145420;29;20053;-90
2022/08/17 16:15:20;;;;;;;12.93;6.50;;;;;;;20.86;84.57;100827.88;10154216;29;20103;-91
2022/08/17 16:20:23;;;;;;;15.15;8.07;;;;;;;20.88;84.79;100823.38;10145972;29;20057;-88
2022/08/17 16:25:30;;;;;;;11.55;7.07;;;;;;;20.91;85.47;100807.38;10146285;29;20052;-88
2022/08/17 16:30:51;;;;;;;13.27;7.70;;;;;;;20.96;85.57;100805.44;10151813;29;20045;-88
2022/08/17 16:35:53;;;;;;;12.20;7.55;;;;;;;21.02;85.79;100799.97;10151286;29;20677;-88
2022/08/17 16:41:05;;;;;;;13.80;8.75;;;;;;;21.15;86.05;100810.28;10155899;29;20536;-89
2022/08/17 16:46:06;;;;;;;12.68;8.60;;;;;;;21.22;86.54;100805.69;10157249;29;20118;-89
2022/08/17 16:51:08;;;;;;;13.95;8.70;;;;;;;21.25;86.77;100814.44;10161629;29;20697;-89
2022/08/17 16:56:10;;;;;;;13.43;9.50;;;;;;;21.24;86.84;100809.16;10162237;29;20052;-89
2022/08/17 17:01:12;;;;;;;14.00;9.30;;;;;;;21.24;86.83;100814.50;10155081;29;20056;-84
2022/08/17 17:06:21;;;;;;;16.80;11.15;;;;;;;21.24;86.94;100820.69;10149479;29;20205;-84
2022/08/17 17:11:39;;;;;;;17.27;11.68;;;;;;;21.23;87.19;100823.38;10157401;29;20045;-84
2022/08/17 17:16:56;;;;;;;14.65;10.73;;;;;;;21.20;87.50;100827.03;10145423;29;20127;-85
2022/08/17 17:22:11;;;;;;;13.35;11.23;;;;;;;21.17;87.48;100817.31;10166133;29;20082;-84
2022/08/17 17:27:46;;;;;;;16.30;10.48;;;;;;;21.17;87.31;100809.34;10170888;29;20072;-85
2022/08/17 17:33:12;;;;;;;17.95;11.50;;;;;;;21.11;87.11;100809.50;10158979;29;20048;-84
2022/08/17 17:38:24;;;;;;;16.33;10.45;;;;;;;21.09;87.13;100821.09;10158465;29;20050;-85
2022/08/17 17:43:30;;;;;;;14.63;10.27;;;;;;;21.07;86.95;100830.91;10156633;29;20096;-84
2022/08/17 17:48:41;;;;;;;14.50;9.93;;;;;;;21.10;86.71;100833.50;10158261;29;20092;-85
2022/08/17 17:53:58;;;;;;;14.80;9.82;;;;;;;21.04;86.80;100853.16;10150101;29;20135;-88
2022/08/17 17:59:25;;;;;;;13.40;9.43;;;;;;;20.94;86.94;100863.19;10160303;29;20071;-90
2022/08/17 18:04:54;;;;;;;13.95;9.70;;;;;;;20.82;87.17;100858.13;10148991;29;20120;-89
2022/08/17 18:10:07;;;;;;;15.32;8.70;;;;;;;20.76;87.80;100855.63;10176215;29;20052;-89
2022/08/17 18:15:28;;;;;;;11.50;8.35;;;;;;;20.76;87.65;100867.16;10162459;29;20154;-87
2022/08/17 18:20:30;;;;;;;11.50;8.43;;;;;;;20.75;87.54;100892.00;10161228;29;20056;-88
2022/08/17 18:25:53;;;;;;;12.82;8.85;;;;;;;20.66;87.63;100887.78;10160362;29;20051;-88
2022/08/17 18:31:06;;;;;;;12.32;8.48;;;;;;;20.57;88.07;100885.28;10161388;29;20139;-92
2022/08/17 18:36:10;;;;;;;14.98;9.43;;;;;;;20.51;88.24;100882.78;10152083;29;20052;-88
2022/08/17 18:41:29;;;;;;;18.15;9.65;;;;;;;20.48;88.17;100874.88;10156769;29;20055;-88
2022/08/17 18:46:35;;;;;;;17.25;9.65;;;;;;;20.42;88.54;100869.69;10157877;29;20052;-88
2022/08/17 18:51:41;;;;;;;15.02;10.23;;;;;;;20.34;88.49;100868.97;10155941;29;20568;-89
2022/08/17 18:56:59;;;;;;;15.40;10.05;;;;;;;20.23;89.17;100870.09;10159003;29;20052;-88
2022/08/17 19:02:13;;;;;;;21.15;10.70;;;;;;;20.21;89.48;100887.84;10154310;29;20477;-88
2022/08/17 19:07:46;;;;;;;13.45;9.85;;;;;;;20.13;89.65;100897.75;10152779;29;20047;-88
2022/08/17 19:35:04;;;;;;;12.88;8.27;;;;;;;20.09;89.72;100918.22;10484052;27;20640;-80
2022/08/17 19:40:12;;;;;;;13.32;8.68;;;;;;;20.06;89.84;100918.28;10458801;28;20061;-79
2022/08/17 19:45:55;;;;;;;16.17;8.57;;;;;;;19.99;89.68;100915.78;10459852;28;20117;-80
2022/08/17 19:51:08;;;;;;;16.25;8.98;;;;;;;20.00;90.01;100906.94;10468003;28;20049;-80
2022/08/17 19:56:24;;;;;;;14.27;9.02;;;;;;;19.92;89.94;100892.00;10463983;28;20049;-80
2022/08/17 20:01:38;;;;;;;13.68;8.13;;;;;;;19.90;90.08;100885.81;10474213;28;20055;-80
2022/08/17 20:06:45;;;;;;;13.77;9.07;;;;;;;19.88;90.10;100892.97;10465613;28;20068;-80
2022/08/17 20:11:57;;;;;;;12.98;8.55;;;;;;;19.76;90.65;100894.03;10468917;28;20049;-80
2022/08/17 20:17:01;;;;;;;15.02;8.25;;;;;;;19.76;90.48;100901.16;10463468;28;20064;-80
2022/08/17 20:22:16;;;;;;;15.70;8.85;;;;;;;19.70;90.91;100909.25;10455830;28;20048;-80
2022/08/17 20:27:24;;;;;;;14.10;8.32;;;;;;;19.64;90.90;100912.88;10461936;28;20064;-80
2022/08/17 20:32:52;;;;;;;14.82;7.60;;;;;;;19.66;91.32;100918.16;10474813;28;20051;-80
2022/08/17 20:37:57;;;;;;;15.40;7.07;;;;;;;19.66;91.26;100912.84;10477240;28;20044;-80
2022/08/17 20:43:28;;;;;;;17.83;7.85;;;;;;;19.66;91.49;100923.47;10478973;28;20584;-80
2022/08/17 20:48:38;;;;;;;15.40;6.45;;;;;;;19.68;91.47;100934.94;10475446;28;20052;-80
2022/08/17 20:53:46;;;;;;;14.07;7.45;;;;;;;19.66;91.69;100926.13;10475201;28;20060;-80
2022/08/17 20:58:48;;;;;;;13.98;6.40;;;;;;;19.65;91.34;100940.31;10476865;28;20564;-80
2022/08/17 21:03:51;;;;;;;16.63;7.00;;;;;;;19.68;91.83;100948.22;10473663;28;20037;-80
2022/08/17 21:09:14;;;;;;;17.83;6.95;;;;;;;19.63;91.64;100939.47;10474299;28;20053;-80
2022/08/17 21:14:41;;;;;;;20.10;6.45;;;;;;;19.57;91.66;100943.97;10465027;28;20091;-79
2022/08/17 21:20:08;;;;;;;18.95;6.55;;;;;;;19.56;92.14;100939.59;10478940;28;20061;-79
2022/08/17 21:25:40;;;;;;;26.48;7.20;;;;;;;19.56;92.12;100946.66;10468789;28;20062;-80
2022/08/17 21:30:47;;;;;;;20.00;7.53;;;;;;;19.52;91.84;100929.03;10475368;28;20041;-79
2022/08/17 21:35:51;;;;;;;19.20;6.88;;;;;;;19.50;92.23;100918.44;10481714;28;20477;-79
2022/08/17 21:40:53;;;;;;;20.23;7.68;;;;;;;19.48;92.11;100928.19;10475081;28;20045;-80
2022/08/17 21:45:59;;;;;;;24.42;6.88;;;;;;;19.41;92.56;100934.50;10470020;28;20056;-80
2022/08/17 21:51:16;;;;;;;18.92;8.13;;;;;;;19.35;92.47;100916.03;10486433;28;20037;-79
2022/08/17 21:56:29;;;;;;;19.35;6.57;;;;;;;19.34;92.62;100924.94;10490751;28;20154;-81
2022/08/17 22:01:33;;;;;;;27.77;7.47;;;;;;;19.33;92.83;100923.16;10475969;28;20534;-80
2022/08/17 22:06:40;;;;;;;18.08;8.00;;;;;;;19.27;93.16;100923.28;10474689;28;20041;-80
2022/08/17 22:12:00;;;;;;;15.80;7.60;;;;;;;19.16;92.93;100919.00;10472922;28;20041;-80
2022/08/17 22:17:19;;;;;;;24.10;7.95;;;;;;;19.12;93.50;100912.00;10470409;28;20056;-80
2022/08/17 22:22:30;;;;;;;27.90;8.13;;;;;;;19.08;93.25;100916.50;10483524;28;20472;-80
2022/08/17 22:27:45;;;;;;;24.90;8.68;;;;;;;19.04;93.58;100920.09;10470953;28;20448;-80
2022/08/17 22:32:48;;;;;;;20.95;9.43;;;;;;;19.00;93.70;100915.72;10459150;28;20045;-79
2022/08/17 22:37:50;;;;;;;25.75;9.32;;;;;;;18.95;93.64;100914.06;10478148;28;20040;-80
2022/08/17 22:42:52;;;;;;;22.10;8.27;;;;;;;18.93;94.16;100894.63;10476868;28;20041;-80
2022/08/17 22:48:00;;;;;;;22.83;9.40;;;;;;;18.88;93.98;100903.50;10469712;28;20385;-80
2022/08/17 23:04:10;;;;;;;23.77;8.95;;;;;;;18.79;94.71;100916.03;10475346;28;20048;-80
2022/08/17 23:09:11;;;;;;;27.63;9.45;;;;;;;18.66;94.64;100939.19;10480055;28;20051;-80
2022/08/17 23:14:14;;;;;;;32.47;9.07;;;;;;;18.48;94.87;100940.31;10481369;28;20065;-80
2022/08/17 23:19:19;;;;;;;23.58;9.32;;;;;;;18.37;95.21;100951.06;10477501;28;20214;-79
2022/08/17 23:24:25;;;;;;;25.08;9.95;;;;;;;18.38;95.33;100960.78;10483791;28;20048;-79
2022/08/17 23:29:28;;;;;;;29.13;12.27;;;;;;;18.27;95.58;100967.97;10476269;28;20052;-80
2022/08/17 23:34:30;;;;;;;21.67;13.45;;;;;;;18.15;96.23;100974.28;10481534;28;20067;-80
2022/08/17 23:39:31;;;;;;;25.00;15.77;;;;;;;18.03;96.23;100972.69;10474417;28;20040;-78
2022/08/17 23:44:35;;;;;;;26.40;15.93;;;;;;;17.94;96.32;100960.41;10455859;28;20040;-79
2022/08/17 23:49:39;;;;;;;27.45;17.65;;;;;;;17.91;96.65;100962.19;10474806;28;20040;-80
2022/08/17 23:54:45;;;;;;;30.73;18.10;;;;;;;17.96;97.06;100955.09;10469788;28;20040;-80
2022/08/17 23:59:47;;;;;;;30.40;17.85;;;;;;;18.06;96.88;100961.13;10477823;28;20068;-80
